Flight Track Log - Related Links

Times and Time Zones

All times are in EDT time to prevent confusion due to time zone crossing. See the CTL15 flight status page for this flight to view local times or setup timezone preferences in your user account.

Time Position Orientation Groundspeed Altitude Reporting Facility
EDT Latitude Longitude Course Direction KTS MPH feet Rate Location/Type
Wed 07:55:36 PM 39.6225 -84.1981 55° Northeast 111 128 3,600  Level Indianapolis Center
Wed 07:56:13 PM 39.6331 -84.1783 55° Northeast 117 135 3,900 632 Climbing Indianapolis Center
Wed 07:57:11 PM 39.6517 -84.1475 52° Northeast 119 137 4,600 800 Climbing Indianapolis Center
Wed 07:58:13 PM 39.6767 -84.1075 51° Northeast 121 139 5,500 738 Climbing Indianapolis Center
Wed 07:59:21 PM 39.6975 -84.0669 56° Northeast 123 142 6,200 585 Climbing Indianapolis Center
Wed 08:00:16 PM 39.7164 -84.0344 53° Northeast 124 143 6,700 466 Climbing Indianapolis Center
Wed 08:01:17 PM 39.7389 -83.9981 51° Northeast 127 146 7,100 195 Climbing Indianapolis Center
Wed 08:02:19 PM 39.7686 -83.9547 48° Northeast 149 171 7,100 49 Level Indianapolis Center
Wed 08:03:20 PM 39.7967 -83.9058 53° Northeast 164 189 7,200 -49 Climbing Indianapolis Center
Wed 08:04:22 PM 39.8275 -83.8578 50° Northeast 170 196 7,000 -98 Descending Indianapolis Center
Wed 08:05:23 PM 39.8600 -83.8117 47° Northeast 172 198 7,000 49 Level Indianapolis Center
Wed 08:06:25 PM 39.8964 -83.7706 41° Northeast 171 197 7,100  Climbing Indianapolis Center
Wed 08:07:26 PM 39.9311 -83.7281 43° Northeast 170 196 7,000 -49 Descending Indianapolis Center
Wed 08:08:28 PM 39.9672 -83.6856 42° Northeast 171 197 7,000  Level Indianapolis Center
Wed 08:09:29 PM 40.0006 -83.6428 45° Northeast 169 194 7,000 98 Level Indianapolis Center
Wed 08:10:31 PM 40.0397 -83.5925 44° Northeast 167 192 7,200 49 Climbing Indianapolis Center
Wed 08:11:32 PM 40.0736 -83.5514 43° Northeast 166 191 7,100 -183 Descending Indianapolis Center
Wed 08:12:42 PM 40.1103 -83.5047 44° Northeast 168 193 6,800 -97 Descending Indianapolis Center
Wed 08:13:36 PM 40.1397 -83.4631 47° Northeast 166 191 6,900 104 Climbing Indianapolis Center
Wed 08:14:37 PM 40.1717 -83.4164 48° Northeast 172 198 7,000 49 Climbing Indianapolis Center
Wed 08:15:38 PM 40.2075 -83.3731 43° Northeast 173 199 7,000  Level Indianapolis Center
Wed 08:16:38 PM 40.2433 -83.3297 43° Northeast 177 204 7,000  Level Indianapolis Center
Wed 08:17:42 PM 40.2750 -83.2850 47° Northeast 168 193 7,000  Level Indianapolis Center
Wed 08:18:43 PM 40.3094 -83.2411 44° Northeast 170 196 7,000 -49 Level Indianapolis Center
Wed 08:19:45 PM 40.3444 -83.1997 42° Northeast 169 194 6,900 -49 Descending Indianapolis Center
Wed 08:20:46 PM 40.3750 -83.1544 48° Northeast 166 191 6,900  Level Indianapolis Center
Wed 08:21:48 PM 40.4075 -83.0997 52° Northeast 165 190 6,900 49 Level Indianapolis Center
Wed 08:22:49 PM 40.4417 -83.0583 43° Northeast 165 190 7,000 49 Climbing Indianapolis Center
Wed 08:23:51 PM 40.4794 -83.0239 35° Northeast 163 188 7,000  Level Indianapolis Center
Wed 08:24:52 PM 40.5206 -82.9919 31° Northeast 166 191 7,000 -49 Level Indianapolis Center
Wed 08:25:54 PM 40.5550 -82.9464 45° Northeast 172 198 6,900 -48 Descending Indianapolis Center
Wed 08:26:56 PM 40.5903 -82.9061 41° Northeast 167 192 6,900  Level Indianapolis Center
Wed 08:27:57 PM 40.6253 -82.8653 42° Northeast 167 192 6,900  Level Indianapolis Center
Wed 08:28:59 PM 40.6589 -82.8211 45° Northeast 168 193 6,900 49 Level Indianapolis Center
Wed 08:30:00 PM 40.6958 -82.7853 36° Northeast 165 190 7,000 49 Climbing Indianapolis Center
Wed 08:31:02 PM 40.7317 -82.7447 41° Northeast 168 193 7,000  Level Indianapolis Center
Wed 08:33:40 PM 40.8306 -82.6331 40° Northeast 175 201 7,000 -28 Level Cleveland Center
Wed 08:34:35 PM 40.8625 -82.5956 42° Northeast 178 205 6,900 -55 Descending Cleveland Center
Wed 08:35:29 PM 40.8944 -82.5553 44° Northeast 179 206 6,900 110 Level Cleveland Center
Wed 08:36:24 PM 40.9244 -82.5094 49° Northeast 175 201 7,100  Climbing Cleveland Center
Wed 08:37:24 PM 40.9583 -82.4664 44° Northeast 173 199 6,900 -50 Descending Cleveland Center
Wed 08:38:25 PM 40.9944 -82.4208 44° Northeast 172 198 7,000 49 Climbing Cleveland Center
Wed 08:39:26 PM 41.0267 -82.3778 45° Northeast 172 198 7,000  Level Cleveland Center
Wed 08:40:26 PM 41.0625 -82.3372 40° Northeast 169 194 7,000 -50 Level Cleveland Center
Wed 08:41:27 PM 41.0986 -82.2914 44° Northeast 170 196 6,900 -50 Descending Cleveland Center
Wed 08:42:27 PM 41.1328 -82.2428 47° Northeast 181 208 6,900 50 Level Cleveland Center
Wed 08:43:28 PM 41.1647 -82.1939 49° Northeast 178 205 7,000 49 Climbing Cleveland Center
Wed 08:44:29 PM 41.1989 -82.1450 47° Northeast 178 205 7,000 -104 Level Cleveland Center
Wed 08:45:23 PM 41.2328 -82.1072 40° Northeast 179 206 6,800 -385 Descending Cleveland Center
Wed 08:46:18 PM 41.2708 -82.0611 42° Northeast 193 222 6,300 -621 Descending Cleveland Center
Wed 08:47:19 PM 41.3131 -82.0261 32° Northeast 191 220 5,600 -793 Descending Cleveland Center
Wed 08:48:19 PM 41.3592 -81.9939 28° Northeast 191 220 4,700 -835 Descending Cleveland Center
Wed 08:49:14 PM 41.4033 -81.9672 24° Northeast 184 212 4,000 -893 Descending Cleveland Center
Wed 08:50:20 PM 41.4517 -81.9267 32° Northeast 191 220 2,900 -520 Descending Cleveland Center
Wed 08:51:21 PM 41.4878 -81.8803 44° Northeast 158 182 2,900 -197 Level Cleveland Center
Wed 08:52:22 PM 41.5069 -81.8336 61° Northeast 161 185 2,500 -645 Descending Cleveland Center
Wed 08:53:22 PM 41.5078 -81.7672 89° East 174 200 1,600 -645 Descending Cleveland Center
Wed 08:54:23 PM 41.5042 -81.7200 96° East 107 123 1,200 -393 Descending Cleveland Center

Login

Don't have an account? Register now (free) for customized features, flight alerts, and more!